sensor_id;sensor_type;location;lat;lon;timestamp;P1;durP1;ratioP1;P2;durP2;ratioP2
13941;SDS011;7043;51.630;7.254;2023-02-28T00:01:25;8.33;;;6.00;;
13941;SDS011;7043;51.630;7.254;2023-02-28T00:03:51;8.23;;;6.20;;
13941;SDS011;7043;51.630;7.254;2023-02-28T00:06:17;12.00;;;6.70;;
13941;SDS011;7043;51.630;7.254;2023-02-28T00:08:43;7.43;;;6.57;;
13941;SDS011;7043;51.630;7.254;2023-02-28T00:11:10;8.80;;;6.60;;
13941;SDS011;7043;51.630;7.254;2023-02-28T00:13:37;7.63;;;6.83;;
13941;SDS011;7043;51.630;7.254;2023-02-28T00:16:10;9.30;;;6.53;;
13941;SDS011;7043;51.630;7.254;2023-02-28T00:18:37;7.13;;;5.83;;
13941;SDS011;7043;51.630;7.254;2023-02-28T00:21:03;8.23;;;5.57;;
13941;SDS011;7043;51.630;7.254;2023-02-28T00:23:29;5.77;;;5.17;;
13941;SDS011;7043;51.630;7.254;2023-02-28T00:25:55;6.63;;;5.40;;
13941;SDS011;7043;51.630;7.254;2023-02-28T00:28:21;7.03;;;5.30;;
13941;SDS011;7043;51.630;7.254;2023-02-28T00:30:47;6.13;;;5.33;;
13941;SDS011;7043;51.630;7.254;2023-02-28T00:33:13;6.47;;;4.63;;
13941;SDS011;7043;51.630;7.254;2023-02-28T00:35:39;6.27;;;5.40;;
13941;SDS011;7043;51.630;7.254;2023-02-28T00:38:05;5.30;;;4.80;;
13941;SDS011;7043;51.630;7.254;2023-02-28T00:40:31;5.50;;;4.87;;
13941;SDS011;7043;51.630;7.254;2023-02-28T00:42:57;5.83;;;4.73;;
13941;SDS011;7043;51.630;7.254;2023-02-28T00:45:23;7.73;;;4.97;;
13941;SDS011;7043;51.630;7.254;2023-02-28T00:47:49;6.13;;;4.57;;
13941;SDS011;7043;51.630;7.254;2023-02-28T00:50:17;4.77;;;4.37;;
13941;SDS011;7043;51.630;7.254;2023-02-28T00:52:43;6.00;;;4.60;;
13941;SDS011;7043;51.630;7.254;2023-02-28T00:55:09;5.17;;;4.53;;
13941;SDS011;7043;51.630;7.254;2023-02-28T00:57:35;5.97;;;4.90;;
13941;SDS011;7043;51.630;7.254;2023-02-28T01:00:01;6.13;;;4.57;;
13941;SDS011;7043;51.630;7.254;2023-02-28T01:02:27;5.77;;;4.30;;
13941;SDS011;7043;51.630;7.254;2023-02-28T01:04:53;5.40;;;4.63;;
13941;SDS011;7043;51.630;7.254;2023-02-28T01:07:19;5.43;;;4.40;;
13941;SDS011;7043;51.630;7.254;2023-02-28T01:09:45;5.57;;;4.20;;
13941;SDS011;7043;51.630;7.254;2023-02-28T01:12:11;4.73;;;4.00;;
13941;SDS011;7043;51.630;7.254;2023-02-28T01:14:37;5.33;;;4.30;;
13941;SDS011;7043;51.630;7.254;2023-02-28T01:17:03;5.27;;;3.93;;
13941;SDS011;7043;51.630;7.254;2023-02-28T01:19:29;6.13;;;4.33;;
13941;SDS011;7043;51.630;7.254;2023-02-28T01:21:55;5.77;;;4.00;;
13941;SDS011;7043;51.630;7.254;2023-02-28T01:24:21;4.37;;;4.00;;
13941;SDS011;7043;51.630;7.254;2023-02-28T01:26:47;6.20;;;4.47;;
13941;SDS011;7043;51.630;7.254;2023-02-28T01:29:13;5.53;;;4.73;;
13941;SDS011;7043;51.630;7.254;2023-02-28T01:31:40;5.80;;;4.90;;
13941;SDS011;7043;51.630;7.254;2023-02-28T01:34:06;5.00;;;4.60;;
13941;SDS011;7043;51.630;7.254;2023-02-28T01:36:32;6.67;;;4.30;;
13941;SDS011;7043;51.630;7.254;2023-02-28T01:38:58;5.43;;;4.07;;
13941;SDS011;7043;51.630;7.254;2023-02-28T01:41:29;5.03;;;4.00;;
13941;SDS011;7043;51.630;7.254;2023-02-28T01:46:24;3.93;;;3.50;;
13941;SDS011;7043;51.630;7.254;2023-02-28T01:48:56;4.93;;;3.97;;
13941;SDS011;7043;51.630;7.254;2023-02-28T01:51:26;4.80;;;3.80;;
13941;SDS011;7043;51.630;7.254;2023-02-28T01:53:56;6.47;;;3.77;;
13941;SDS011;7043;51.630;7.254;2023-02-28T01:56:24;5.13;;;3.80;;
13941;SDS011;7043;51.630;7.254;2023-02-28T01:58:51;4.20;;;3.80;;
13941;SDS011;7043;51.630;7.254;2023-02-28T02:01:17;4.03;;;3.67;;
13941;SDS011;7043;51.630;7.254;2023-02-28T02:03:51;4.93;;;3.77;;
13941;SDS011;7043;51.630;7.254;2023-02-28T02:06:31;5.30;;;3.57;;
13941;SDS011;7043;51.630;7.254;2023-02-28T02:08:59;3.47;;;3.17;;
13941;SDS011;7043;51.630;7.254;2023-02-28T02:11:25;3.57;;;3.27;;
13941;SDS011;7043;51.630;7.254;2023-02-28T02:18:47;3.57;;;2.87;;
13941;SDS011;7043;51.630;7.254;2023-02-28T02:26:26;4.93;;;2.93;;
13941;SDS011;7043;51.630;7.254;2023-02-28T02:29:07;4.27;;;3.17;;
13941;SDS011;7043;51.630;7.254;2023-02-28T02:31:54;5.37;;;3.20;;
13941;SDS011;7043;51.630;7.254;2023-02-28T02:34:39;3.90;;;3.07;;
13941;SDS011;7043;51.630;7.254;2023-02-28T02:37:29;5.17;;;3.40;;
13941;SDS011;7043;51.630;7.254;2023-02-28T02:42:29;4.70;;;3.63;;
13941;SDS011;7043;51.630;7.254;2023-02-28T02:45:05;6.13;;;4.40;;
13941;SDS011;7043;51.630;7.254;2023-02-28T02:47:32;5.20;;;4.67;;
13941;SDS011;7043;51.630;7.254;2023-02-28T02:50:00;3.70;;;3.40;;
13941;SDS011;7043;51.630;7.254;2023-02-28T02:52:40;3.73;;;3.40;;
13941;SDS011;7043;51.630;7.254;2023-02-28T02:55:06;4.00;;;3.10;;
13941;SDS011;7043;51.630;7.254;2023-02-28T02:57:38;4.67;;;3.30;;
13941;SDS011;7043;51.630;7.254;2023-02-28T03:00:06;3.83;;;2.93;;
13941;SDS011;7043;51.630;7.254;2023-02-28T03:02:33;3.37;;;2.80;;
13941;SDS011;7043;51.630;7.254;2023-02-28T03:05:35;3.80;;;3.40;;
13941;SDS011;7043;51.630;7.254;2023-02-28T03:07:53;3.60;;;2.63;;
13941;SDS011;7043;51.630;7.254;2023-02-28T03:10:36;3.80;;;3.00;;
13941;SDS011;7043;51.630;7.254;2023-02-28T03:13:14;3.00;;;2.70;;
13941;SDS011;7043;51.630;7.254;2023-02-28T03:18:41;3.37;;;3.00;;
13941;SDS011;7043;51.630;7.254;2023-02-28T03:23:42;3.77;;;2.80;;
13941;SDS011;7043;51.630;7.254;2023-02-28T03:26:15;4.63;;;3.03;;
13941;SDS011;7043;51.630;7.254;2023-02-28T03:28:46;3.60;;;3.30;;
13941;SDS011;7043;51.630;7.254;2023-02-28T03:31:16;3.47;;;3.10;;
13941;SDS011;7043;51.630;7.254;2023-02-28T03:33:45;4.07;;;3.17;;
13941;SDS011;7043;51.630;7.254;2023-02-28T03:36:20;4.17;;;3.60;;
13941;SDS011;7043;51.630;7.254;2023-02-28T03:38:49;4.40;;;4.00;;
13941;SDS011;7043;51.630;7.254;2023-02-28T03:41:25;5.90;;;4.40;;
13941;SDS011;7043;51.630;7.254;2023-02-28T03:43:54;7.43;;;4.30;;
13941;SDS011;7043;51.630;7.254;2023-02-28T03:46:21;5.60;;;4.20;;
13941;SDS011;7043;51.630;7.254;2023-02-28T03:48:53;6.10;;;4.03;;
13941;SDS011;7043;51.630;7.254;2023-02-28T03:51:22;5.17;;;3.90;;
13941;SDS011;7043;51.630;7.254;2023-02-28T03:53:52;4.20;;;3.43;;
13941;SDS011;7043;51.630;7.254;2023-02-28T03:56:25;4.97;;;3.77;;
13941;SDS011;7043;51.630;7.254;2023-02-28T04:01:51;4.70;;;3.43;;
13941;SDS011;7043;51.630;7.254;2023-02-28T04:04:10;4.63;;;3.30;;
13941;SDS011;7043;51.630;7.254;2023-02-28T04:06:37;3.47;;;2.87;;
13941;SDS011;7043;51.630;7.254;2023-02-28T04:09:03;2.93;;;2.63;;
13941;SDS011;7043;51.630;7.254;2023-02-28T04:11:34;3.27;;;2.97;;
13941;SDS011;7043;51.630;7.254;2023-02-28T04:14:01;3.73;;;3.30;;
13941;SDS011;7043;51.630;7.254;2023-02-28T04:16:28;6.63;;;3.70;;
13941;SDS011;7043;51.630;7.254;2023-02-28T04:18:54;4.07;;;3.40;;
13941;SDS011;7043;51.630;7.254;2023-02-28T04:21:27;3.90;;;3.50;;
13941;SDS011;7043;51.630;7.254;2023-02-28T04:23:53;5.17;;;3.80;;
13941;SDS011;7043;51.630;7.254;2023-02-28T04:26:19;6.10;;;4.00;;
13941;SDS011;7043;51.630;7.254;2023-02-28T04:28:45;4.83;;;3.70;;
13941;SDS011;7043;51.630;7.254;2023-02-28T04:31:11;4.77;;;3.57;;
13941;SDS011;7043;51.630;7.254;2023-02-28T04:33:37;3.60;;;3.17;;
13941;SDS011;7043;51.630;7.254;2023-02-28T04:36:07;5.57;;;3.83;;
13941;SDS011;7043;51.630;7.254;2023-02-28T04:38:36;4.27;;;3.60;;
13941;SDS011;7043;51.630;7.254;2023-02-28T04:41:03;5.50;;;3.47;;
13941;SDS011;7043;51.630;7.254;2023-02-28T04:43:29;4.50;;;3.90;;
13941;SDS011;7043;51.630;7.254;2023-02-28T04:45:56;4.53;;;3.50;;
13941;SDS011;7043;51.630;7.254;2023-02-28T04:48:23;5.43;;;3.43;;
13941;SDS011;7043;51.630;7.254;2023-02-28T04:50:49;4.57;;;3.73;;
13941;SDS011;7043;51.630;7.254;2023-02-28T04:53:15;5.83;;;3.90;;
13941;SDS011;7043;51.630;7.254;2023-02-28T04:55:42;4.27;;;3.57;;
13941;SDS011;7043;51.630;7.254;2023-02-28T04:58:07;4.87;;;4.13;;
13941;SDS011;7043;51.630;7.254;2023-02-28T05:00:33;6.77;;;4.13;;
13941;SDS011;7043;51.630;7.254;2023-02-28T05:02:59;4.40;;;3.90;;
13941;SDS011;7043;51.630;7.254;2023-02-28T05:05:25;4.93;;;4.00;;
13941;SDS011;7043;51.630;7.254;2023-02-28T05:07:51;4.90;;;4.33;;
13941;SDS011;7043;51.630;7.254;2023-02-28T05:10:18;5.20;;;4.27;;
13941;SDS011;7043;51.630;7.254;2023-02-28T05:12:45;5.77;;;4.13;;
13941;SDS011;7043;51.630;7.254;2023-02-28T05:15:12;6.00;;;4.33;;
13941;SDS011;7043;51.630;7.254;2023-02-28T05:17:39;5.67;;;4.33;;
13941;SDS011;7043;51.630;7.254;2023-02-28T05:20:05;5.87;;;4.40;;
13941;SDS011;7043;51.630;7.254;2023-02-28T05:22:31;4.90;;;4.40;;
13941;SDS011;7043;51.630;7.254;2023-02-28T05:24:57;7.17;;;4.43;;
13941;SDS011;7043;51.630;7.254;2023-02-28T05:27:23;4.70;;;4.20;;
13941;SDS011;7043;51.630;7.254;2023-02-28T05:29:50;8.83;;;5.37;;
13941;SDS011;7043;51.630;7.254;2023-02-28T05:32:16;4.73;;;3.90;;
13941;SDS011;7043;51.630;7.254;2023-02-28T05:34:41;5.50;;;4.50;;
13941;SDS011;7043;51.630;7.254;2023-02-28T05:37:11;5.47;;;4.80;;
13941;SDS011;7043;51.630;7.254;2023-02-28T05:39:38;6.77;;;4.43;;
13941;SDS011;7043;51.630;7.254;2023-02-28T05:42:04;5.40;;;4.80;;
13941;SDS011;7043;51.630;7.254;2023-02-28T05:44:30;6.37;;;4.97;;
13941;SDS011;7043;51.630;7.254;2023-02-28T05:46:56;5.07;;;4.57;;
13941;SDS011;7043;51.630;7.254;2023-02-28T05:49:22;6.67;;;5.17;;
13941;SDS011;7043;51.630;7.254;2023-02-28T05:51:48;6.43;;;5.20;;
13941;SDS011;7043;51.630;7.254;2023-02-28T05:54:14;6.20;;;4.80;;
13941;SDS011;7043;51.630;7.254;2023-02-28T05:56:40;5.93;;;5.00;;
13941;SDS011;7043;51.630;7.254;2023-02-28T05:59:08;6.97;;;5.43;;
13941;SDS011;7043;51.630;7.254;2023-02-28T06:01:44;6.83;;;5.10;;
13941;SDS011;7043;51.630;7.254;2023-02-28T06:04:13;10.37;;;6.23;;
13941;SDS011;7043;51.630;7.254;2023-02-28T06:06:42;7.57;;;6.43;;
13941;SDS011;7043;51.630;7.254;2023-02-28T06:09:08;9.00;;;6.17;;
13941;SDS011;7043;51.630;7.254;2023-02-28T06:11:34;8.43;;;6.00;;
13941;SDS011;7043;51.630;7.254;2023-02-28T06:14:00;7.80;;;6.00;;
13941;SDS011;7043;51.630;7.254;2023-02-28T06:16:27;8.00;;;6.50;;
13941;SDS011;7043;51.630;7.254;2023-02-28T06:18:53;9.53;;;7.03;;
13941;SDS011;7043;51.630;7.254;2023-02-28T06:21:22;7.73;;;6.93;;
13941;SDS011;7043;51.630;7.254;2023-02-28T06:23:49;9.23;;;7.30;;
13941;SDS011;7043;51.630;7.254;2023-02-28T06:26:15;8.83;;;7.17;;
13941;SDS011;7043;51.630;7.254;2023-02-28T06:28:41;9.50;;;7.93;;
13941;SDS011;7043;51.630;7.254;2023-02-28T06:31:08;8.57;;;7.13;;
13941;SDS011;7043;51.630;7.254;2023-02-28T06:33:34;8.37;;;7.27;;
13941;SDS011;7043;51.630;7.254;2023-02-28T06:36:00;7.83;;;7.03;;
13941;SDS011;7043;51.630;7.254;2023-02-28T06:38:26;7.30;;;6.67;;
13941;SDS011;7043;51.630;7.254;2023-02-28T06:40:53;7.57;;;6.87;;
13941;SDS011;7043;51.630;7.254;2023-02-28T06:43:19;9.50;;;7.27;;
13941;SDS011;7043;51.630;7.254;2023-02-28T06:45:45;8.43;;;7.20;;
13941;SDS011;7043;51.630;7.254;2023-02-28T06:48:11;9.50;;;7.80;;
13941;SDS011;7043;51.630;7.254;2023-02-28T06:50:37;10.53;;;7.80;;
13941;SDS011;7043;51.630;7.254;2023-02-28T06:53:03;7.67;;;6.87;;
13941;SDS011;7043;51.630;7.254;2023-02-28T06:55:29;7.97;;;6.27;;
13941;SDS011;7043;51.630;7.254;2023-02-28T06:57:56;10.83;;;6.53;;
13941;SDS011;7043;51.630;7.254;2023-02-28T07:00:22;9.60;;;6.60;;
13941;SDS011;7043;51.630;7.254;2023-02-28T07:02:48;9.83;;;7.30;;
13941;SDS011;7043;51.630;7.254;2023-02-28T07:05:14;8.23;;;7.43;;
13941;SDS011;7043;51.630;7.254;2023-02-28T07:07:40;8.97;;;6.60;;
13941;SDS011;7043;51.630;7.254;2023-02-28T07:10:10;8.07;;;6.17;;
13941;SDS011;7043;51.630;7.254;2023-02-28T07:12:36;6.90;;;6.17;;
13941;SDS011;7043;51.630;7.254;2023-02-28T07:15:02;7.87;;;6.13;;
13941;SDS011;7043;51.630;7.254;2023-02-28T07:17:29;6.93;;;6.00;;
13941;SDS011;7043;51.630;7.254;2023-02-28T07:19:55;6.70;;;5.97;;
13941;SDS011;7043;51.630;7.254;2023-02-28T07:22:21;7.43;;;6.03;;
13941;SDS011;7043;51.630;7.254;2023-02-28T07:24:47;7.50;;;5.97;;
13941;SDS011;7043;51.630;7.254;2023-02-28T07:27:13;7.87;;;6.03;;
13941;SDS011;7043;51.630;7.254;2023-02-28T07:29:48;7.50;;;6.37;;
13941;SDS011;7043;51.630;7.254;2023-02-28T07:32:14;7.87;;;6.37;;
13941;SDS011;7043;51.630;7.254;2023-02-28T07:34:40;7.93;;;6.60;;
13941;SDS011;7043;51.630;7.254;2023-02-28T07:37:06;6.73;;;6.03;;
13941;SDS011;7043;51.630;7.254;2023-02-28T07:39:32;10.37;;;7.00;;
13941;SDS011;7043;51.630;7.254;2023-02-28T07:41:58;10.47;;;7.70;;
13941;SDS011;7043;51.630;7.254;2023-02-28T07:44:25;7.93;;;6.60;;
13941;SDS011;7043;51.630;7.254;2023-02-28T07:46:50;8.87;;;6.67;;
13941;SDS011;7043;51.630;7.254;2023-02-28T07:49:17;10.97;;;7.80;;
13941;SDS011;7043;51.630;7.254;2023-02-28T07:51:44;13.17;;;8.37;;
13941;SDS011;7043;51.630;7.254;2023-02-28T07:54:10;11.20;;;8.10;;
13941;SDS011;7043;51.630;7.254;2023-02-28T07:56:36;9.57;;;6.63;;
13941;SDS011;7043;51.630;7.254;2023-02-28T07:59:02;7.63;;;6.10;;
13941;SDS011;7043;51.630;7.254;2023-02-28T08:01:28;6.20;;;5.33;;
13941;SDS011;7043;51.630;7.254;2023-02-28T08:03:54;6.97;;;5.40;;
13941;SDS011;7043;51.630;7.254;2023-02-28T08:06:22;6.33;;;5.53;;
13941;SDS011;7043;51.630;7.254;2023-02-28T08:08:49;8.73;;;5.33;;
13941;SDS011;7043;51.630;7.254;2023-02-28T08:11:15;6.47;;;4.80;;
13941;SDS011;7043;51.630;7.254;2023-02-28T08:13:41;6.57;;;5.30;;
13941;SDS011;7043;51.630;7.254;2023-02-28T08:16:08;5.87;;;5.20;;
13941;SDS011;7043;51.630;7.254;2023-02-28T08:18:35;6.83;;;5.00;;
13941;SDS011;7043;51.630;7.254;2023-02-28T08:21:08;4.80;;;4.20;;
13941;SDS011;7043;51.630;7.254;2023-02-28T08:23:34;6.17;;;4.70;;
13941;SDS011;7043;51.630;7.254;2023-02-28T08:26:00;5.47;;;4.80;;
13941;SDS011;7043;51.630;7.254;2023-02-28T08:28:26;6.10;;;4.80;;
13941;SDS011;7043;51.630;7.254;2023-02-28T08:30:52;5.30;;;4.30;;
13941;SDS011;7043;51.630;7.254;2023-02-28T08:33:19;6.17;;;4.30;;
13941;SDS011;7043;51.630;7.254;2023-02-28T08:35:45;5.30;;;4.23;;
13941;SDS011;7043;51.630;7.254;2023-02-28T08:38:11;5.27;;;4.23;;
13941;SDS011;7043;51.630;7.254;2023-02-28T08:40:37;5.23;;;4.20;;
13941;SDS011;7043;51.630;7.254;2023-02-28T08:43:03;4.60;;;4.07;;
13941;SDS011;7043;51.630;7.254;2023-02-28T08:45:29;4.40;;;3.90;;
13941;SDS011;7043;51.630;7.254;2023-02-28T08:47:55;4.40;;;4.00;;
13941;SDS011;7043;51.630;7.254;2023-02-28T08:50:21;5.97;;;4.30;;
13941;SDS011;7043;51.630;7.254;2023-02-28T08:52:47;5.00;;;4.00;;
13941;SDS011;7043;51.630;7.254;2023-02-28T08:55:13;4.27;;;3.80;;
13941;SDS011;7043;51.630;7.254;2023-02-28T08:57:40;4.90;;;4.40;;
13941;SDS011;7043;51.630;7.254;2023-02-28T09:00:06;4.67;;;4.20;;
13941;SDS011;7043;51.630;7.254;2023-02-28T09:02:33;4.83;;;4.17;;
13941;SDS011;7043;51.630;7.254;2023-02-28T09:04:59;4.43;;;3.63;;
13941;SDS011;7043;51.630;7.254;2023-02-28T09:07:25;4.07;;;3.73;;
13941;SDS011;7043;51.630;7.254;2023-02-28T09:09:51;4.47;;;3.80;;
13941;SDS011;7043;51.630;7.254;2023-02-28T09:12:24;4.67;;;3.87;;
13941;SDS011;7043;51.630;7.254;2023-02-28T09:14:50;4.07;;;3.50;;
13941;SDS011;7043;51.630;7.254;2023-02-28T09:17:16;6.23;;;3.57;;
13941;SDS011;7043;51.630;7.254;2023-02-28T09:19:43;3.53;;;3.17;;
13941;SDS011;7043;51.630;7.254;2023-02-28T09:22:09;3.37;;;3.07;;
13941;SDS011;7043;51.630;7.254;2023-02-28T09:24:38;3.70;;;3.07;;
13941;SDS011;7043;51.630;7.254;2023-02-28T09:27:04;3.73;;;2.97;;
13941;SDS011;7043;51.630;7.254;2023-02-28T09:29:33;3.40;;;3.10;;
13941;SDS011;7043;51.630;7.254;2023-02-28T09:31:59;4.23;;;3.07;;
13941;SDS011;7043;51.630;7.254;2023-02-28T09:34:26;3.63;;;2.50;;
13941;SDS011;7043;51.630;7.254;2023-02-28T09:36:52;4.97;;;3.07;;
13941;SDS011;7043;51.630;7.254;2023-02-28T09:39:20;3.47;;;2.87;;
13941;SDS011;7043;51.630;7.254;2023-02-28T09:41:47;3.10;;;2.60;;
13941;SDS011;7043;51.630;7.254;2023-02-28T09:46:55;3.37;;;2.70;;
13941;SDS011;7043;51.630;7.254;2023-02-28T09:49:25;4.50;;;3.10;;
13941;SDS011;7043;51.630;7.254;2023-02-28T09:51:58;5.33;;;3.83;;
13941;SDS011;7043;51.630;7.254;2023-02-28T09:54:26;4.50;;;3.77;;
13941;SDS011;7043;51.630;7.254;2023-02-28T09:56:58;4.60;;;3.87;;
13941;SDS011;7043;51.630;7.254;2023-02-28T09:59:33;5.93;;;4.20;;
13941;SDS011;7043;51.630;7.254;2023-02-28T10:02:04;7.00;;;4.23;;
13941;SDS011;7043;51.630;7.254;2023-02-28T10:10:07;3.00;;;2.57;;
13941;SDS011;7043;51.630;7.254;2023-02-28T10:12:40;2.80;;;2.50;;
13941;SDS011;7043;51.630;7.254;2023-02-28T10:15:13;3.97;;;2.40;;
13941;SDS011;7043;51.630;7.254;2023-02-28T10:17:41;4.40;;;2.70;;
13941;SDS011;7043;51.630;7.254;2023-02-28T10:20:11;3.10;;;2.20;;
13941;SDS011;7043;51.630;7.254;2023-02-28T10:22:45;3.23;;;2.00;;
13941;SDS011;7043;51.630;7.254;2023-02-28T10:25:17;3.90;;;2.80;;
13941;SDS011;7043;51.630;7.254;2023-02-28T10:27:43;3.97;;;2.40;;
13941;SDS011;7043;51.630;7.254;2023-02-28T10:30:10;4.63;;;2.93;;
13941;SDS011;7043;51.630;7.254;2023-02-28T10:32:37;3.30;;;2.93;;
13941;SDS011;7043;51.630;7.254;2023-02-28T10:35:13;3.13;;;2.67;;
13941;SDS011;7043;51.630;7.254;2023-02-28T10:37:40;5.50;;;2.70;;
13941;SDS011;7043;51.630;7.254;2023-02-28T10:40:29;3.67;;;2.50;;
13941;SDS011;7043;51.630;7.254;2023-02-28T10:43:03;2.90;;;2.40;;
13941;SDS011;7043;51.630;7.254;2023-02-28T10:45:30;3.17;;;2.30;;
13941;SDS011;7043;51.630;7.254;2023-02-28T10:47:58;3.20;;;2.00;;
13941;SDS011;7043;51.630;7.254;2023-02-28T10:53:05;3.57;;;2.00;;
13941;SDS011;7043;51.630;7.254;2023-02-28T10:55:33;3.43;;;2.23;;
13941;SDS011;7043;51.630;7.254;2023-02-28T10:57:59;2.63;;;1.80;;
13941;SDS011;7043;51.630;7.254;2023-02-28T11:00:25;2.37;;;1.50;;
13941;SDS011;7043;51.630;7.254;2023-02-28T11:02:56;2.70;;;1.83;;
13941;SDS011;7043;51.630;7.254;2023-02-28T11:05:40;2.00;;;1.50;;
13941;SDS011;7043;51.630;7.254;2023-02-28T11:10:36;2.13;;;1.63;;
13941;SDS011;7043;51.630;7.254;2023-02-28T11:13:02;1.90;;;1.60;;
13941;SDS011;7043;51.630;7.254;2023-02-28T11:15:30;1.93;;;1.73;;
13941;SDS011;7043;51.630;7.254;2023-02-28T11:18:00;2.83;;;1.83;;
13941;SDS011;7043;51.630;7.254;2023-02-28T11:20:28;2.10;;;1.90;;
13941;SDS011;7043;51.630;7.254;2023-02-28T11:22:55;3.43;;;1.97;;
13941;SDS011;7043;51.630;7.254;2023-02-28T11:25:34;2.73;;;1.90;;
13941;SDS011;7043;51.630;7.254;2023-02-28T11:28:03;2.70;;;2.23;;
13941;SDS011;7043;51.630;7.254;2023-02-28T11:32:59;3.10;;;2.50;;
13941;SDS011;7043;51.630;7.254;2023-02-28T11:35:38;2.43;;;2.10;;
13941;SDS011;7043;51.630;7.254;2023-02-28T11:38:05;2.40;;;2.20;;
13941;SDS011;7043;51.630;7.254;2023-02-28T11:40:43;2.83;;;2.20;;
13941;SDS011;7043;51.630;7.254;2023-02-28T11:51:18;2.37;;;2.17;;
13941;SDS011;7043;51.630;7.254;2023-02-28T11:53:51;3.33;;;2.10;;
13941;SDS011;7043;51.630;7.254;2023-02-28T11:59:30;2.77;;;2.17;;
13941;SDS011;7043;51.630;7.254;2023-02-28T12:09:51;2.20;;;2.00;;
13941;SDS011;7043;51.630;7.254;2023-02-28T12:25:21;3.73;;;3.13;;
13941;SDS011;7043;51.630;7.254;2023-02-28T12:27:48;2.60;;;2.40;;
13941;SDS011;7043;51.630;7.254;2023-02-28T12:30:16;3.00;;;2.70;;
13941;SDS011;7043;51.630;7.254;2023-02-28T12:32:47;2.80;;;2.60;;
13941;SDS011;7043;51.630;7.254;2023-02-28T12:35:16;4.60;;;4.20;;
13941;SDS011;7043;51.630;7.254;2023-02-28T12:37:47;2.93;;;2.70;;
13941;SDS011;7043;51.630;7.254;2023-02-28T12:40:19;4.00;;;2.30;;
13941;SDS011;7043;51.630;7.254;2023-02-28T12:42:47;3.00;;;2.10;;
13941;SDS011;7043;51.630;7.254;2023-02-28T12:48:15;1.73;;;1.63;;
13941;SDS011;7043;51.630;7.254;2023-02-28T12:50:45;3.80;;;2.37;;
13941;SDS011;7043;51.630;7.254;2023-02-28T12:53:25;2.20;;;2.00;;
13941;SDS011;7043;51.630;7.254;2023-02-28T12:58:51;2.63;;;2.10;;
13941;SDS011;7043;51.630;7.254;2023-02-28T13:09:33;3.43;;;2.20;;
13941;SDS011;7043;51.630;7.254;2023-02-28T13:11:59;2.40;;;1.77;;
13941;SDS011;7043;51.630;7.254;2023-02-28T13:19:34;2.27;;;2.07;;
13941;SDS011;7043;51.630;7.254;2023-02-28T13:22:01;2.83;;;2.40;;
13941;SDS011;7043;51.630;7.254;2023-02-28T13:24:36;3.40;;;2.20;;
13941;SDS011;7043;51.630;7.254;2023-02-28T13:29:30;3.10;;;2.80;;
13941;SDS011;7043;51.630;7.254;2023-02-28T13:34:34;2.43;;;2.23;;
13941;SDS011;7043;51.630;7.254;2023-02-28T13:39:51;2.80;;;2.47;;
13941;SDS011;7043;51.630;7.254;2023-02-28T13:45:35;2.60;;;2.40;;
13941;SDS011;7043;51.630;7.254;2023-02-28T13:50:15;3.27;;;2.63;;
13941;SDS011;7043;51.630;7.254;2023-02-28T13:55:31;3.03;;;2.73;;
13941;SDS011;7043;51.630;7.254;2023-02-28T14:05:36;3.37;;;2.83;;
13941;SDS011;7043;51.630;7.254;2023-02-28T14:08:07;4.07;;;3.20;;
13941;SDS011;7043;51.630;7.254;2023-02-28T14:10:45;4.67;;;2.83;;
13941;SDS011;7043;51.630;7.254;2023-02-28T14:15:57;3.60;;;3.30;;
13941;SDS011;7043;51.630;7.254;2023-02-28T14:18:34;3.83;;;3.20;;
13941;SDS011;7043;51.630;7.254;2023-02-28T14:21:10;5.10;;;3.00;;
13941;SDS011;7043;51.630;7.254;2023-02-28T14:28:58;3.43;;;2.80;;
13941;SDS011;7043;51.630;7.254;2023-02-28T14:31:29;3.30;;;3.00;;
13941;SDS011;7043;51.630;7.254;2023-02-28T14:36:26;3.70;;;2.50;;
13941;SDS011;7043;51.630;7.254;2023-02-28T14:38:57;7.03;;;3.03;;
13941;SDS011;7043;51.630;7.254;2023-02-28T14:41:29;3.70;;;2.83;;
13941;SDS011;7043;51.630;7.254;2023-02-28T14:43:56;3.47;;;2.63;;
13941;SDS011;7043;51.630;7.254;2023-02-28T14:46:28;3.57;;;3.17;;
13941;SDS011;7043;51.630;7.254;2023-02-28T14:48:55;3.27;;;2.97;;
13941;SDS011;7043;51.630;7.254;2023-02-28T14:51:22;3.20;;;2.87;;
13941;SDS011;7043;51.630;7.254;2023-02-28T14:53:50;4.47;;;3.23;;
13941;SDS011;7043;51.630;7.254;2023-02-28T14:56:19;4.23;;;3.00;;
13941;SDS011;7043;51.630;7.254;2023-02-28T14:58:50;3.77;;;3.00;;
13941;SDS011;7043;51.630;7.254;2023-02-28T15:01:18;4.90;;;3.20;;
13941;SDS011;7043;51.630;7.254;2023-02-28T15:03:45;4.73;;;2.97;;
13941;SDS011;7043;51.630;7.254;2023-02-28T15:06:13;4.33;;;3.70;;
13941;SDS011;7043;51.630;7.254;2023-02-28T15:08:39;3.50;;;3.20;;
13941;SDS011;7043;51.630;7.254;2023-02-28T15:11:12;3.70;;;3.40;;
13941;SDS011;7043;51.630;7.254;2023-02-28T15:16:08;4.13;;;3.63;;
13941;SDS011;7043;51.630;7.254;2023-02-28T15:21:06;4.70;;;3.50;;
13941;SDS011;7043;51.630;7.254;2023-02-28T15:23:33;3.47;;;3.17;;
13941;SDS011;7043;51.630;7.254;2023-02-28T15:26:00;3.47;;;3.17;;
13941;SDS011;7043;51.630;7.254;2023-02-28T15:28:26;3.73;;;3.27;;
13941;SDS011;7043;51.630;7.254;2023-02-28T15:31:00;4.37;;;3.50;;
13941;SDS011;7043;51.630;7.254;2023-02-28T15:33:27;4.40;;;3.60;;
13941;SDS011;7043;51.630;7.254;2023-02-28T15:36:15;4.53;;;3.90;;
13941;SDS011;7043;51.630;7.254;2023-02-28T15:38:40;4.63;;;4.20;;
13941;SDS011;7043;51.630;7.254;2023-02-28T15:41:20;3.60;;;3.30;;
13941;SDS011;7043;51.630;7.254;2023-02-28T15:43:46;4.00;;;3.60;;
13941;SDS011;7043;51.630;7.254;2023-02-28T15:46:12;3.80;;;3.50;;
13941;SDS011;7043;51.630;7.254;2023-02-28T15:48:44;4.40;;;3.50;;
13941;SDS011;7043;51.630;7.254;2023-02-28T15:53:48;3.80;;;3.27;;
13941;SDS011;7043;51.630;7.254;2023-02-28T15:56:31;3.60;;;3.30;;
13941;SDS011;7043;51.630;7.254;2023-02-28T15:59:02;4.47;;;3.70;;
13941;SDS011;7043;51.630;7.254;2023-02-28T16:01:29;4.07;;;3.70;;
13941;SDS011;7043;51.630;7.254;2023-02-28T16:04:10;4.77;;;3.40;;
13941;SDS011;7043;51.630;7.254;2023-02-28T16:09:06;5.43;;;4.13;;
13941;SDS011;7043;51.630;7.254;2023-02-28T16:11:39;3.73;;;3.43;;
13941;SDS011;7043;51.630;7.254;2023-02-28T16:14:06;5.20;;;4.20;;
13941;SDS011;7043;51.630;7.254;2023-02-28T16:16:33;5.03;;;4.53;;
13941;SDS011;7043;51.630;7.254;2023-02-28T16:19:00;4.10;;;3.70;;
13941;SDS011;7043;51.630;7.254;2023-02-28T16:21:26;4.83;;;3.80;;
13941;SDS011;7043;51.630;7.254;2023-02-28T16:23:52;4.70;;;3.53;;
13941;SDS011;7043;51.630;7.254;2023-02-28T16:26:19;4.40;;;3.83;;
13941;SDS011;7043;51.630;7.254;2023-02-28T16:28:45;5.30;;;4.37;;
13941;SDS011;7043;51.630;7.254;2023-02-28T16:31:11;6.40;;;4.70;;
13941;SDS011;7043;51.630;7.254;2023-02-28T16:33:42;4.30;;;3.57;;
13941;SDS011;7043;51.630;7.254;2023-02-28T16:36:10;5.73;;;3.90;;
13941;SDS011;7043;51.630;7.254;2023-02-28T16:38:37;4.10;;;3.70;;
13941;SDS011;7043;51.630;7.254;2023-02-28T16:41:03;3.90;;;3.33;;
13941;SDS011;7043;51.630;7.254;2023-02-28T16:43:29;6.70;;;4.60;;
13941;SDS011;7043;51.630;7.254;2023-02-28T16:45:55;6.03;;;4.27;;
13941;SDS011;7043;51.630;7.254;2023-02-28T16:48:23;4.67;;;3.60;;
13941;SDS011;7043;51.630;7.254;2023-02-28T16:50:49;3.70;;;3.30;;
13941;SDS011;7043;51.630;7.254;2023-02-28T16:53:15;4.93;;;3.80;;
13941;SDS011;7043;51.630;7.254;2023-02-28T16:55:41;4.93;;;3.40;;
13941;SDS011;7043;51.630;7.254;2023-02-28T16:58:10;5.07;;;4.53;;
13941;SDS011;7043;51.630;7.254;2023-02-28T17:00:39;3.70;;;3.30;;
13941;SDS011;7043;51.630;7.254;2023-02-28T17:03:05;4.90;;;4.03;;
13941;SDS011;7043;51.630;7.254;2023-02-28T17:05:36;5.73;;;4.30;;
13941;SDS011;7043;51.630;7.254;2023-02-28T17:08:04;5.77;;;4.50;;
13941;SDS011;7043;51.630;7.254;2023-02-28T17:10:30;5.10;;;4.60;;
13941;SDS011;7043;51.630;7.254;2023-02-28T17:12:56;6.03;;;5.17;;
13941;SDS011;7043;51.630;7.254;2023-02-28T17:15:22;6.70;;;5.57;;
13941;SDS011;7043;51.630;7.254;2023-02-28T17:17:48;7.03;;;5.90;;
13941;SDS011;7043;51.630;7.254;2023-02-28T17:20:16;7.73;;;6.67;;
13941;SDS011;7043;51.630;7.254;2023-02-28T17:22:42;7.37;;;5.63;;